sensor_id;sensor_type;location;lat;lon;timestamp;temperature;humidity
12889;DHT22;56848;49.896;11.424;2022-10-16T04:02:13;14.20;99.90
12889;DHT22;56848;49.896;11.424;2022-10-16T04:04:38;14.20;99.90
12889;DHT22;56848;49.896;11.424;2022-10-16T04:07:04;14.20;99.90
12889;DHT22;56848;49.896;11.424;2022-10-16T04:09:30;14.30;99.90
12889;DHT22;56848;49.896;11.424;2022-10-16T04:11:55;14.30;99.90
12889;DHT22;56848;49.896;11.424;2022-10-16T04:14:21;14.20;99.90
12889;DHT22;56848;49.896;11.424;2022-10-16T04:16:46;14.20;99.90
12889;DHT22;56848;49.896;11.424;2022-10-16T04:19:12;14.20;99.90
12889;DHT22;56848;49.896;11.424;2022-10-16T04:21:38;14.20;99.90
12889;DHT22;56848;49.896;11.424;2022-10-16T04:24:04;14.30;99.90
12889;DHT22;56848;49.896;11.424;2022-10-16T04:26:30;14.30;99.90
12889;DHT22;56848;49.896;11.424;2022-10-16T04:28:55;14.30;99.90
12889;DHT22;56848;49.896;11.424;2022-10-16T04:31:21;14.30;99.90
12889;DHT22;56848;49.896;11.424;2022-10-16T04:33:47;14.30;99.90
12889;DHT22;56848;49.896;11.424;2022-10-16T04:36:13;14.30;99.90
12889;DHT22;56848;49.896;11.424;2022-10-16T04:38:39;14.40;99.90
12889;DHT22;56848;49.896;11.424;2022-10-16T04:41:06;14.40;99.90
12889;DHT22;56848;49.896;11.424;2022-10-16T04:43:31;14.30;99.90
12889;DHT22;56848;49.896;11.424;2022-10-16T04:45:57;14.30;99.90
12889;DHT22;56848;49.896;11.424;2022-10-16T04:48:23;14.40;99.90
12889;DHT22;56848;49.896;11.424;2022-10-16T04:50:48;14.30;99.90
12889;DHT22;56848;49.896;11.424;2022-10-16T04:53:14;14.30;99.90
12889;DHT22;56848;49.896;11.424;2022-10-16T04:55:41;14.30;99.90
12889;DHT22;56848;49.896;11.424;2022-10-16T04:58:07;14.20;99.90
12889;DHT22;56848;49.896;11.424;2022-10-16T05:00:33;14.30;99.90
12889;DHT22;56848;49.896;11.424;2022-10-16T05:02:58;14.20;99.90
12889;DHT22;56848;49.896;11.424;2022-10-16T05:05:26;14.30;99.90
12889;DHT22;56848;49.896;11.424;2022-10-16T05:07:52;14.30;99.90
12889;DHT22;56848;49.896;11.424;2022-10-16T05:10:17;14.30;99.90
12889;DHT22;56848;49.896;11.424;2022-10-16T05:12:43;14.30;99.90
12889;DHT22;56848;49.896;11.424;2022-10-16T05:15:09;14.30;99.90
12889;DHT22;56848;49.896;11.424;2022-10-16T05:17:34;14.30;99.90
12889;DHT22;56848;49.896;11.424;2022-10-16T05:20:00;14.30;99.90
12889;DHT22;56848;49.896;11.424;2022-10-16T05:22:26;14.30;99.90
12889;DHT22;56848;49.896;11.424;2022-10-16T05:24:51;14.30;99.90
12889;DHT22;56848;49.896;11.424;2022-10-16T05:27:17;14.40;99.90
12889;DHT22;56848;49.896;11.424;2022-10-16T05:29:46;14.30;99.90
12889;DHT22;56848;49.896;11.424;2022-10-16T05:32:13;14.30;99.90
12889;DHT22;56848;49.896;11.424;2022-10-16T05:34:39;14.30;99.90
12889;DHT22;56848;49.896;11.424;2022-10-16T05:37:04;14.30;99.90
12889;DHT22;56848;49.896;11.424;2022-10-16T05:39:30;14.30;99.90
12889;DHT22;56848;49.896;11.424;2022-10-16T05:41:56;14.30;99.90
12889;DHT22;56848;49.896;11.424;2022-10-16T05:44:21;14.20;99.90
12889;DHT22;56848;49.896;11.424;2022-10-16T05:46:47;14.20;99.90
12889;DHT22;56848;49.896;11.424;2022-10-16T05:49:13;14.20;99.90
12889;DHT22;56848;49.896;11.424;2022-10-16T05:51:38;14.20;99.90
12889;DHT22;56848;49.896;11.424;2022-10-16T05:54:04;14.20;99.90
12889;DHT22;56848;49.896;11.424;2022-10-16T05:56:29;14.20;99.90
12889;DHT22;56848;49.896;11.424;2022-10-16T05:58:55;14.10;99.90
12889;DHT22;56848;49.896;11.424;2022-10-16T06:01:20;14.10;99.90
12889;DHT22;56848;49.896;11.424;2022-10-16T06:03:50;14.10;99.90
12889;DHT22;56848;49.896;11.424;2022-10-16T06:06:21;14.20;99.90
12889;DHT22;56848;49.896;11.424;2022-10-16T06:08:48;14.20;99.90
12889;DHT22;56848;49.896;11.424;2022-10-16T06:11:19;14.20;99.90
12889;DHT22;56848;49.896;11.424;2022-10-16T06:13:48;14.20;99.90
12889;DHT22;56848;49.896;11.424;2022-10-16T06:16:14;14.30;99.90
12889;DHT22;56848;49.896;11.424;2022-10-16T06:18:40;14.30;99.90
12889;DHT22;56848;49.896;11.424;2022-10-16T06:21:14;14.30;99.90
12889;DHT22;56848;49.896;11.424;2022-10-16T06:23:41;14.30;99.90
12889;DHT22;56848;49.896;11.424;2022-10-16T06:26:12;14.30;99.90
12889;DHT22;56848;49.896;11.424;2022-10-16T06:28:38;14.40;99.90
12889;DHT22;56848;49.896;11.424;2022-10-16T06:31:05;14.40;99.90
12889;DHT22;56848;49.896;11.424;2022-10-16T06:33:32;14.50;99.90
12889;DHT22;56848;49.896;11.424;2022-10-16T06:36:05;14.40;99.90
12889;DHT22;56848;49.896;11.424;2022-10-16T06:38:31;14.50;99.90
12889;DHT22;56848;49.896;11.424;2022-10-16T06:40:58;14.50;99.90
12889;DHT22;56848;49.896;11.424;2022-10-16T06:43:23;14.60;99.90
12889;DHT22;56848;49.896;11.424;2022-10-16T06:45:53;14.60;99.90
12889;DHT22;56848;49.896;11.424;2022-10-16T06:48:20;14.60;99.90
12889;DHT22;56848;49.896;11.424;2022-10-16T06:51:02;14.60;99.90
12889;DHT22;56848;49.896;11.424;2022-10-16T06:53:30;14.60;99.90
12889;DHT22;56848;49.896;11.424;2022-10-16T06:55:56;14.60;99.90
12889;DHT22;56848;49.896;11.424;2022-10-16T06:58:22;14.60;99.90
12889;DHT22;56848;49.896;11.424;2022-10-16T07:00:49;14.70;99.90
12889;DHT22;56848;49.896;11.424;2022-10-16T07:03:19;14.50;99.90
12889;DHT22;56848;49.896;11.424;2022-10-16T07:05:45;14.70;99.90
12889;DHT22;56848;49.896;11.424;2022-10-16T07:08:11;14.70;99.90
12889;DHT22;56848;49.896;11.424;2022-10-16T07:10:36;14.70;99.90
12889;DHT22;56848;49.896;11.424;2022-10-16T07:13:02;14.80;99.90
12889;DHT22;56848;49.896;11.424;2022-10-16T07:15:28;14.80;99.90
12889;DHT22;56848;49.896;11.424;2022-10-16T07:17:53;14.70;99.90
12889;DHT22;56848;49.896;11.424;2022-10-16T07:20:19;14.70;99.90
12889;DHT22;56848;49.896;11.424;2022-10-16T07:22:45;14.70;99.90
12889;DHT22;56848;49.896;11.424;2022-10-16T07:25:11;14.80;99.90
12889;DHT22;56848;49.896;11.424;2022-10-16T07:27:37;14.90;99.90
12889;DHT22;56848;49.896;11.424;2022-10-16T07:30:03;14.90;99.90
12889;DHT22;56848;49.896;11.424;2022-10-16T07:32:29;15.00;99.90
12889;DHT22;56848;49.896;11.424;2022-10-16T07:34:55;15.00;99.90
12889;DHT22;56848;49.896;11.424;2022-10-16T07:37:21;15.10;99.90
12889;DHT22;56848;49.896;11.424;2022-10-16T07:39:46;15.30;99.90
12889;DHT22;56848;49.896;11.424;2022-10-16T07:42:12;15.30;99.90
12889;DHT22;56848;49.896;11.424;2022-10-16T07:44:38;15.30;99.90
12889;DHT22;56848;49.896;11.424;2022-10-16T07:47:03;15.30;99.90
12889;DHT22;56848;49.896;11.424;2022-10-16T07:49:29;15.30;99.90
12889;DHT22;56848;49.896;11.424;2022-10-16T07:51:54;15.30;99.90
12889;DHT22;56848;49.896;11.424;2022-10-16T07:54:20;15.20;99.90
12889;DHT22;56848;49.896;11.424;2022-10-16T07:56:45;15.30;99.90
12889;DHT22;56848;49.896;11.424;2022-10-16T07:59:11;15.20;99.90
12889;DHT22;56848;49.896;11.424;2022-10-16T08:01:36;15.30;99.90
12889;DHT22;56848;49.896;11.424;2022-10-16T08:04:02;15.40;99.90
12889;DHT22;56848;49.896;11.424;2022-10-16T08:06:28;15.40;99.90
12889;DHT22;56848;49.896;11.424;2022-10-16T08:08:54;15.50;99.90
12889;DHT22;56848;49.896;11.424;2022-10-16T08:11:20;15.60;99.90
12889;DHT22;56848;49.896;11.424;2022-10-16T08:13:46;15.60;99.90
12889;DHT22;56848;49.896;11.424;2022-10-16T08:16:12;15.60;99.90
12889;DHT22;56848;49.896;11.424;2022-10-16T08:18:39;15.60;99.90
12889;DHT22;56848;49.896;11.424;2022-10-16T08:21:06;15.60;99.90
12889;DHT22;56848;49.896;11.424;2022-10-16T08:23:33;15.70;99.90
12889;DHT22;56848;49.896;11.424;2022-10-16T08:26:05;15.80;99.90
12889;DHT22;56848;49.896;11.424;2022-10-16T08:28:31;16.10;99.90
12889;DHT22;56848;49.896;11.424;2022-10-16T08:31:08;16.10;99.90
12889;DHT22;56848;49.896;11.424;2022-10-16T08:33:34;16.20;99.90
12889;DHT22;56848;49.896;11.424;2022-10-16T08:36:01;16.20;99.90
12889;DHT22;56848;49.896;11.424;2022-10-16T08:38:26;16.30;99.90
12889;DHT22;56848;49.896;11.424;2022-10-16T08:41:53;16.50;99.90
12889;DHT22;56848;49.896;11.424;2022-10-16T08:44:21;16.50;99.90
12889;DHT22;56848;49.896;11.424;2022-10-16T08:47:10;16.70;99.90
12889;DHT22;56848;49.896;11.424;2022-10-16T08:49:41;16.70;99.90
12889;DHT22;56848;49.896;11.424;2022-10-16T08:52:11;16.60;99.90
12889;DHT22;56848;49.896;11.424;2022-10-16T08:54:42;16.70;99.90
12889;DHT22;56848;49.896;11.424;2022-10-16T08:57:19;16.70;99.90
12889;DHT22;56848;49.896;11.424;2022-10-16T08:59:45;16.80;99.90
12889;DHT22;56848;49.896;11.424;2022-10-16T09:13:19;16.80;99.90
12889;DHT22;56848;49.896;11.424;2022-10-16T09:15:54;16.80;99.90
12889;DHT22;56848;49.896;11.424;2022-10-16T15:25:55;18.10;99.90
12889;DHT22;56848;49.896;11.424;2022-10-16T15:28:22;16.20;99.90
12889;DHT22;56848;49.896;11.424;2022-10-16T15:30:50;16.00;99.90
12889;DHT22;56848;49.896;11.424;2022-10-16T15:33:18;16.10;99.90
12889;DHT22;56848;49.896;11.424;2022-10-16T15:35:47;16.00;99.90
12889;DHT22;56848;49.896;11.424;2022-10-16T15:38:13;16.00;99.90
12889;DHT22;56848;49.896;11.424;2022-10-16T15:40:39;15.80;99.90
12889;DHT22;56848;49.896;11.424;2022-10-16T15:43:05;15.80;99.90
12889;DHT22;56848;49.896;11.424;2022-10-16T15:45:31;15.80;99.90
12889;DHT22;56848;49.896;11.424;2022-10-16T15:47:57;15.80;99.90
12889;DHT22;56848;49.896;11.424;2022-10-16T15:50:22;15.80;99.90
12889;DHT22;56848;49.896;11.424;2022-10-16T15:52:48;15.90;99.90
12889;DHT22;56848;49.896;11.424;2022-10-16T15:55:15;15.90;99.90
12889;DHT22;56848;49.896;11.424;2022-10-16T15:57:41;15.90;99.90
12889;DHT22;56848;49.896;11.424;2022-10-16T16:00:13;15.90;99.90
12889;DHT22;56848;49.896;11.424;2022-10-16T16:02:40;15.90;99.90
12889;DHT22;56848;49.896;11.424;2022-10-16T16:05:07;15.80;99.90
12889;DHT22;56848;49.896;11.424;2022-10-16T16:07:37;15.80;99.90
12889;DHT22;56848;49.896;11.424;2022-10-16T16:10:05;15.70;99.90
12889;DHT22;56848;49.896;11.424;2022-10-16T16:12:32;15.70;99.90
12889;DHT22;56848;49.896;11.424;2022-10-16T16:14:58;15.70;99.90
12889;DHT22;56848;49.896;11.424;2022-10-16T16:17:23;15.70;99.90
12889;DHT22;56848;49.896;11.424;2022-10-16T16:19:50;15.70;99.90
12889;DHT22;56848;49.896;11.424;2022-10-16T16:22:15;15.70;99.90
12889;DHT22;56848;49.896;11.424;2022-10-16T16:24:41;15.50;99.90
12889;DHT22;56848;49.896;11.424;2022-10-16T16:27:07;15.50;99.90
12889;DHT22;56848;49.896;11.424;2022-10-16T16:29:32;15.50;99.90
12889;DHT22;56848;49.896;11.424;2022-10-16T16:31:59;15.40;99.90
12889;DHT22;56848;49.896;11.424;2022-10-16T16:34:28;15.30;99.90
12889;DHT22;56848;49.896;11.424;2022-10-16T16:36:55;15.40;99.90
12889;DHT22;56848;49.896;11.424;2022-10-16T16:39:21;15.30;99.90
12889;DHT22;56848;49.896;11.424;2022-10-16T16:41:47;15.20;99.90
12889;DHT22;56848;49.896;11.424;2022-10-16T16:44:14;15.30;99.90
12889;DHT22;56848;49.896;11.424;2022-10-16T16:46:41;15.30;99.90
12889;DHT22;56848;49.896;11.424;2022-10-16T16:49:10;15.30;99.90
12889;DHT22;56848;49.896;11.424;2022-10-16T16:51:37;15.20;99.90
12889;DHT22;56848;49.896;11.424;2022-10-16T16:54:03;15.20;99.90
12889;DHT22;56848;49.896;11.424;2022-10-16T16:56:29;15.10;99.90
12889;DHT22;56848;49.896;11.424;2022-10-16T16:58:56;15.10;99.90
12889;DHT22;56848;49.896;11.424;2022-10-16T17:01:23;15.00;99.90
12889;DHT22;56848;49.896;11.424;2022-10-16T17:03:52;15.00;99.90
12889;DHT22;56848;49.896;11.424;2022-10-16T17:06:25;14.90;99.90
12889;DHT22;56848;49.896;11.424;2022-10-16T17:08:50;15.00;99.90
12889;DHT22;56848;49.896;11.424;2022-10-16T17:11:22;14.90;99.90
12889;DHT22;56848;49.896;11.424;2022-10-16T17:13:49;15.00;99.90
12889;DHT22;56848;49.896;11.424;2022-10-16T17:16:15;15.00;99.90
12889;DHT22;56848;49.896;11.424;2022-10-16T17:18:41;15.00;99.90
12889;DHT22;56848;49.896;11.424;2022-10-16T17:21:08;15.00;99.90
12889;DHT22;56848;49.896;11.424;2022-10-16T17:23:35;14.90;99.90
12889;DHT22;56848;49.896;11.424;2022-10-16T17:26:12;14.80;99.90
12889;DHT22;56848;49.896;11.424;2022-10-16T17:28:37;14.70;99.90
12889;DHT22;56848;49.896;11.424;2022-10-16T17:31:15;14.80;99.90
12889;DHT22;56848;49.896;11.424;2022-10-16T17:33:40;14.80;99.90
12889;DHT22;56848;49.896;11.424;2022-10-16T17:36:06;14.90;99.90
12889;DHT22;56848;49.896;11.424;2022-10-16T17:38:33;14.90;99.90
12889;DHT22;56848;49.896;11.424;2022-10-16T17:41:04;14.80;99.90
12889;DHT22;56848;49.896;11.424;2022-10-16T17:43:34;14.80;99.90
12889;DHT22;56848;49.896;11.424;2022-10-16T17:46:01;14.90;99.90
12889;DHT22;56848;49.896;11.424;2022-10-16T17:48:27;14.90;99.90
12889;DHT22;56848;49.896;11.424;2022-10-16T17:50:53;14.80;99.90
12889;DHT22;56848;49.896;11.424;2022-10-16T17:53:18;14.90;99.90
12889;DHT22;56848;49.896;11.424;2022-10-16T17:55:44;14.90;99.90
12889;DHT22;56848;49.896;11.424;2022-10-16T17:58:09;14.90;99.90
12889;DHT22;56848;49.896;11.424;2022-10-16T18:00:35;14.80;99.90
12889;DHT22;56848;49.896;11.424;2022-10-16T18:03:00;14.90;99.90
12889;DHT22;56848;49.896;11.424;2022-10-16T18:05:26;14.80;99.90
12889;DHT22;56848;49.896;11.424;2022-10-16T18:07:51;14.80;99.90
12889;DHT22;56848;49.896;11.424;2022-10-16T18:10:17;14.80;99.90
12889;DHT22;56848;49.896;11.424;2022-10-16T18:12:43;14.70;99.90
12889;DHT22;56848;49.896;11.424;2022-10-16T18:15:09;14.70;99.90
12889;DHT22;56848;49.896;11.424;2022-10-16T18:17:35;14.70;99.90
12889;DHT22;56848;49.896;11.424;2022-10-16T18:20:05;14.80;99.90
12889;DHT22;56848;49.896;11.424;2022-10-16T18:22:34;14.70;99.90
12889;DHT22;56848;49.896;11.424;2022-10-16T18:25:02;14.70;99.90
12889;DHT22;56848;49.896;11.424;2022-10-16T18:27:30;14.60;99.90
12889;DHT22;56848;49.896;11.424;2022-10-16T18:29:55;14.70;99.90
12889;DHT22;56848;49.896;11.424;2022-10-16T18:32:22;14.60;99.90
12889;DHT22;56848;49.896;11.424;2022-10-16T18:34:48;14.60;99.90
12889;DHT22;56848;49.896;11.424;2022-10-16T18:37:14;14.60;99.90
12889;DHT22;56848;49.896;11.424;2022-10-16T18:39:40;14.70;99.90
12889;DHT22;56848;49.896;11.424;2022-10-16T18:42:06;14.70;99.90
12889;DHT22;56848;49.896;11.424;2022-10-16T18:44:31;14.60;99.90
12889;DHT22;56848;49.896;11.424;2022-10-16T18:46:57;14.60;99.90
12889;DHT22;56848;49.896;11.424;2022-10-16T18:49:23;14.50;99.90
12889;DHT22;56848;49.896;11.424;2022-10-16T18:51:51;14.40;99.90
12889;DHT22;56848;49.896;11.424;2022-10-16T18:54:22;14.40;99.90
12889;DHT22;56848;49.896;11.424;2022-10-16T18:56:50;14.30;99.90
12889;DHT22;56848;49.896;11.424;2022-10-16T18:59:16;14.30;99.90
12889;DHT22;56848;49.896;11.424;2022-10-16T19:01:41;14.10;99.90
12889;DHT22;56848;49.896;11.424;2022-10-16T19:04:10;14.00;99.90
12889;DHT22;56848;49.896;11.424;2022-10-16T19:06:39;13.90;99.90
12889;DHT22;56848;49.896;11.424;2022-10-16T19:09:05;13.80;99.90
12889;DHT22;56848;49.896;11.424;2022-10-16T19:11:31;13.70;99.90
12889;DHT22;56848;49.896;11.424;2022-10-16T19:13:57;13.60;99.90
12889;DHT22;56848;49.896;11.424;2022-10-16T19:16:28;13.70;99.90
12889;DHT22;56848;49.896;11.424;2022-10-16T19:18:55;13.70;99.90
12889;DHT22;56848;49.896;11.424;2022-10-16T19:21:22;13.50;99.90
12889;DHT22;56848;49.896;11.424;2022-10-16T19:23:56;13.30;99.90
12889;DHT22;56848;49.896;11.424;2022-10-16T19:26:23;13.40;99.90
12889;DHT22;56848;49.896;11.424;2022-10-16T19:28:49;13.50;99.90
12889;DHT22;56848;49.896;11.424;2022-10-16T19:31:20;13.40;99.90
12889;DHT22;56848;49.896;11.424;2022-10-16T19:33:46;13.30;99.90
12889;DHT22;56848;49.896;11.424;2022-10-16T19:36:14;13.20;99.90
12889;DHT22;56848;49.896;11.424;2022-10-16T19:38:42;13.10;99.90
12889;DHT22;56848;49.896;11.424;2022-10-16T19:41:16;13.10;99.90
12889;DHT22;56848;49.896;11.424;2022-10-16T19:43:43;13.10;99.90
12889;DHT22;56848;49.896;11.424;2022-10-16T19:46:14;13.20;99.90
12889;DHT22;56848;49.896;11.424;2022-10-16T19:48:40;13.10;99.90
12889;DHT22;56848;49.896;11.424;2022-10-16T19:51:09;13.00;99.90
12889;DHT22;56848;49.896;11.424;2022-10-16T19:53:35;12.90;99.90
12889;DHT22;56848;49.896;11.424;2022-10-16T19:56:01;13.00;99.90
12889;DHT22;56848;49.896;11.424;2022-10-16T19:58:26;12.90;99.90
12889;DHT22;56848;49.896;11.424;2022-10-16T20:00:52;12.90;99.90
12889;DHT22;56848;49.896;11.424;2022-10-16T20:03:19;12.80;99.90
12889;DHT22;56848;49.896;11.424;2022-10-16T20:05:54;12.80;99.90
12889;DHT22;56848;49.896;11.424;2022-10-16T20:08:21;12.70;99.90
12889;DHT22;56848;49.896;11.424;2022-10-16T20:10:52;12.60;99.90
12889;DHT22;56848;49.896;11.424;2022-10-16T20:13:18;12.60;99.90
12889;DHT22;56848;49.896;11.424;2022-10-16T20:15:44;12.50;99.90
12889;DHT22;56848;49.896;11.424;2022-10-16T20:18:10;12.40;99.90
